createdAt,value
2023-04-02T00:00:46.112Z,63.84
2023-04-02T00:01:46.164Z,63.81
2023-04-02T00:02:46.153Z,63.75
2023-04-02T00:03:46.234Z,63.81
2023-04-02T00:04:46.140Z,63.86
2023-04-02T00:05:46.154Z,63.85
2023-04-02T00:06:46.120Z,63.87
2023-04-02T00:07:46.128Z,63.82
2023-04-02T00:08:46.122Z,63.86
2023-04-02T00:09:46.168Z,63.80
2023-04-02T00:10:46.138Z,63.91
2023-04-02T00:11:46.123Z,63.83
2023-04-02T00:12:46.146Z,63.53
2023-04-02T00:13:46.120Z,63.62
2023-04-02T00:14:46.172Z,63.39
2023-04-02T00:15:46.115Z,63.77
2023-04-02T00:16:46.244Z,63.79
2023-04-02T00:17:46.218Z,63.59
2023-04-02T00:18:46.139Z,63.41
2023-04-02T00:19:46.120Z,63.48
2023-04-02T00:20:46.120Z,63.35
2023-04-02T00:21:46.119Z,63.31
2023-04-02T00:22:47.268Z,63.19
2023-04-02T00:23:46.155Z,63.10
2023-04-02T00:24:46.126Z,63.16
2023-04-02T00:25:46.131Z,63.15
2023-04-02T00:26:46.118Z,63.56
2023-04-02T00:27:46.146Z,63.71
2023-04-02T00:28:46.165Z,63.34
2023-04-02T00:29:46.118Z,63.20
2023-04-02T00:30:46.117Z,63.18
2023-04-02T00:31:46.203Z,63.67
2023-04-02T00:32:47.320Z,64.04
2023-04-02T00:33:46.189Z,63.84
2023-04-02T00:34:46.117Z,63.91
2023-04-02T00:35:46.126Z,63.86
2023-04-02T00:36:46.127Z,63.61
2023-04-02T00:37:46.126Z,63.40
2023-04-02T00:38:47.552Z,63.24
2023-04-02T00:39:46.161Z,63.37
2023-04-02T00:40:46.128Z,63.15
2023-04-02T00:41:46.119Z,63.01
2023-04-02T00:42:46.141Z,63.03
2023-04-02T00:43:46.113Z,62.85
2023-04-02T00:44:46.146Z,62.65
2023-04-02T00:45:46.139Z,62.52
2023-04-02T00:46:46.114Z,62.94
2023-04-02T00:47:46.155Z,63.04
2023-04-02T00:48:46.115Z,62.93
2023-04-02T00:49:46.111Z,62.94
2023-04-02T00:50:46.121Z,62.91
2023-04-02T00:51:46.131Z,63.06
2023-04-02T00:52:46.146Z,62.86
2023-04-02T00:53:46.130Z,62.91
2023-04-02T00:54:46.137Z,62.64
2023-04-02T00:55:46.157Z,62.52
2023-04-02T00:56:46.182Z,62.43
2023-04-02T00:57:46.179Z,62.82
2023-04-02T00:58:46.162Z,62.86
2023-04-02T00:59:46.180Z,62.80
2023-04-02T01:00:46.203Z,62.92
2023-04-02T01:01:46.306Z,62.96
2023-04-02T01:02:46.253Z,63.07
2023-04-02T01:03:46.280Z,62.92
2023-04-02T01:04:46.216Z,62.65
2023-04-02T01:05:46.233Z,62.55
2023-04-02T01:06:46.311Z,62.66
2023-04-02T01:07:46.228Z,62.65
2023-04-02T01:08:46.248Z,62.88
2023-04-02T01:09:46.267Z,62.54
2023-04-02T01:10:46.246Z,62.68
2023-04-02T01:11:46.256Z,62.71
2023-04-02T01:12:46.286Z,62.74
2023-04-02T01:13:46.255Z,62.40
2023-04-02T01:14:46.263Z,63.02
2023-04-02T01:15:46.309Z,63.57
2023-04-02T01:16:46.335Z,63.90
2023-04-02T01:17:46.386Z,63.97
2023-04-02T01:18:46.384Z,63.88
2023-04-02T01:19:46.336Z,64.12
2023-04-02T01:20:46.354Z,64.10
2023-04-02T01:21:46.410Z,64.01
2023-04-02T01:22:46.491Z,63.86
2023-04-02T01:23:46.545Z,63.84
2023-04-02T01:24:46.619Z,63.74
2023-04-02T01:25:46.657Z,63.77
2023-04-02T01:26:46.698Z,63.67
2023-04-02T01:27:46.763Z,63.65
2023-04-02T01:28:46.807Z,63.76
2023-04-02T01:29:46.849Z,63.78
2023-04-02T01:30:46.908Z,63.80
2023-04-02T01:31:46.983Z,63.73
2023-04-02T01:32:47.108Z,63.76
2023-04-02T01:33:47.070Z,63.84
2023-04-02T01:34:47.170Z,63.62
2023-04-02T01:35:47.271Z,63.72
2023-04-02T01:36:47.297Z,63.78
2023-04-02T01:37:47.358Z,64.11
2023-04-02T01:38:47.403Z,64.44
2023-04-02T01:39:47.457Z,64.26
2023-04-02T01:40:47.522Z,64.08
2023-04-02T01:41:47.566Z,63.92
2023-04-02T01:42:47.622Z,63.74
2023-04-02T01:43:47.692Z,63.29
2023-04-02T01:44:47.747Z,63.19
2023-04-02T01:45:47.812Z,63.77
2023-04-02T01:46:47.916Z,63.93
2023-04-02T01:47:47.939Z,64.12
2023-04-02T01:48:47.969Z,64.96
2023-04-02T01:49:47.984Z,64.86
2023-04-02T01:50:48.037Z,64.39
2023-04-02T01:51:48.054Z,64.04
2023-04-02T01:52:48.082Z,63.77
2023-04-02T01:53:48.122Z,63.60
2023-04-02T01:54:48.160Z,63.47
2023-04-02T01:55:48.181Z,63.28
2023-04-02T01:56:48.216Z,63.13
2023-04-02T01:57:48.230Z,63.42
2023-04-02T01:58:48.304Z,64.04
2023-04-02T01:59:48.343Z,64.17
2023-04-02T02:00:48.393Z,64.18
2023-04-02T02:01:48.516Z,64.01
2023-04-02T02:02:48.584Z,63.81
2023-04-02T02:03:48.608Z,63.89
2023-04-02T02:04:48.683Z,64.08
2023-04-02T02:05:48.694Z,63.99
2023-04-02T02:06:48.729Z,63.87
2023-04-02T02:07:48.778Z,63.86
2023-04-02T02:08:48.878Z,63.80
2023-04-02T02:09:48.890Z,63.66
2023-04-02T02:10:48.936Z,63.54
2023-04-02T02:11:48.978Z,63.49
2023-04-02T02:12:49.023Z,63.39
2023-04-02T02:13:49.072Z,63.35
2023-04-02T02:14:49.108Z,63.61
2023-04-02T02:15:49.167Z,63.65
2023-04-02T02:16:49.308Z,63.79
2023-04-02T02:17:49.320Z,63.68
2023-04-02T02:18:49.367Z,63.53
2023-04-02T02:19:49.439Z,63.66
2023-04-02T02:20:49.485Z,63.69
2023-04-02T02:21:49.513Z,64.13
2023-04-02T02:22:49.623Z,64.23
2023-04-02T02:23:49.653Z,64.23
2023-04-02T02:24:49.708Z,64.20
2023-04-02T02:25:49.767Z,64.27
2023-04-02T02:26:49.815Z,64.29
2023-04-02T02:27:49.875Z,64.68
2023-04-02T02:28:49.933Z,64.94
2023-04-02T02:29:49.953Z,64.87
2023-04-02T02:30:50.002Z,64.85
2023-04-02T02:31:50.129Z,64.83
2023-04-02T02:32:50.108Z,64.55
2023-04-02T02:33:50.139Z,64.64
2023-04-02T02:34:50.182Z,64.66
2023-04-02T02:35:50.231Z,64.61
2023-04-02T02:36:50.277Z,64.31
2023-04-02T02:37:50.311Z,64.52
2023-04-02T02:38:50.390Z,64.77
2023-04-02T02:39:50.425Z,65.06
2023-04-02T02:40:50.525Z,65.08
2023-04-02T02:41:50.582Z,65.20
2023-04-02T02:42:50.672Z,65.21
2023-04-02T02:43:50.734Z,65.38
2023-04-02T02:44:50.812Z,65.22
2023-04-02T02:45:50.906Z,65.25
2023-04-02T02:46:50.909Z,65.45
2023-04-02T02:47:50.999Z,65.08
2023-04-02T02:48:51.047Z,64.97
2023-04-02T02:49:51.123Z,65.14
2023-04-02T02:50:51.190Z,65.05
2023-04-02T02:51:51.256Z,64.97
2023-04-02T02:52:51.357Z,65.39
2023-04-02T02:53:51.360Z,65.70
2023-04-02T02:54:51.412Z,66.02
2023-04-02T02:55:51.454Z,65.68
2023-04-02T02:56:51.524Z,65.38
2023-04-02T02:57:51.569Z,65.19
2023-04-02T02:58:51.605Z,65.05
2023-04-02T02:59:51.665Z,64.99
2023-04-02T03:00:51.722Z,65.05
2023-04-02T03:01:51.787Z,65.22
2023-04-02T03:02:51.996Z,65.53
2023-04-02T03:03:51.985Z,65.86
2023-04-02T03:04:51.928Z,65.81
2023-04-02T03:05:51.973Z,65.80
2023-04-02T03:06:52.016Z,65.93
2023-04-02T03:07:52.057Z,65.84
2023-04-02T03:08:52.143Z,65.81
2023-04-02T03:09:52.165Z,65.76
2023-04-02T03:10:52.233Z,65.78
2023-04-02T03:11:52.277Z,65.61
2023-04-02T03:12:52.342Z,65.67
2023-04-02T03:13:52.415Z,65.52
2023-04-02T03:14:52.483Z,65.38
2023-04-02T03:15:52.598Z,65.18
2023-04-02T03:16:52.620Z,64.93
2023-04-02T03:17:52.758Z,65.06
2023-04-02T03:18:52.755Z,65.09
2023-04-02T03:19:52.820Z,65.01
2023-04-02T03:20:52.891Z,65.22
2023-04-02T03:21:52.943Z,64.94
2023-04-02T03:22:53.001Z,65.49
2023-04-02T03:23:53.059Z,65.62
2023-04-02T03:24:53.147Z,65.43
2023-04-02T03:25:53.170Z,65.54
2023-04-02T03:26:53.243Z,65.43
2023-04-02T03:27:53.295Z,65.08
2023-04-02T03:28:53.359Z,64.98
2023-04-02T03:29:53.430Z,64.93
2023-04-02T03:30:53.539Z,64.60
2023-04-02T03:31:53.553Z,64.74
2023-04-02T03:32:53.645Z,64.81
2023-04-02T03:33:53.638Z,64.84
2023-04-02T03:34:53.685Z,65.01
2023-04-02T03:35:53.748Z,64.96
2023-04-02T03:36:53.769Z,64.81
2023-04-02T03:37:53.814Z,64.81
2023-04-02T03:38:53.860Z,64.77
2023-04-02T03:39:53.922Z,64.82
2023-04-02T03:40:54.022Z,64.77
2023-04-02T03:41:54.057Z,64.81
2023-04-02T03:42:54.135Z,64.85
2023-04-02T03:43:54.219Z,64.69
2023-04-02T03:44:54.298Z,64.63
2023-04-02T03:45:54.350Z,64.70
2023-04-02T03:46:54.448Z,65.00
2023-04-02T03:47:54.515Z,64.93
2023-04-02T03:48:54.569Z,64.83
2023-04-02T03:49:54.609Z,65.05
2023-04-02T03:50:54.692Z,65.09
2023-04-02T03:51:54.746Z,65.08
2023-04-02T03:52:54.778Z,65.04
2023-04-02T03:53:54.829Z,65.34
2023-04-02T03:54:54.862Z,65.16
2023-04-02T03:55:54.907Z,64.98
2023-04-02T03:56:55.056Z,64.96
2023-04-02T03:57:54.974Z,65.21
2023-04-02T03:58:55.002Z,65.37
2023-04-02T03:59:55.026Z,65.32
2023-04-02T04:00:55.045Z,65.20
2023-04-02T04:01:55.129Z,65.22
2023-04-02T04:02:55.160Z,65.22
2023-04-02T04:03:55.122Z,65.17
2023-04-02T04:04:55.138Z,65.51
2023-04-02T04:05:55.174Z,65.78
2023-04-02T04:06:55.192Z,66.06
2023-04-02T04:07:55.229Z,66.16
2023-04-02T04:08:55.269Z,66.04
2023-04-02T04:09:55.325Z,66.13
2023-04-02T04:10:55.378Z,66.06
2023-04-02T04:11:55.378Z,66.28
2023-04-02T04:12:55.429Z,66.27
2023-04-02T04:13:55.434Z,66.28
2023-04-02T04:14:55.496Z,66.31
2023-04-02T04:15:55.525Z,66.53
2023-04-02T04:16:55.699Z,66.54
2023-04-02T04:17:55.577Z,66.53
2023-04-02T04:18:55.577Z,66.68
2023-04-02T04:19:55.622Z,66.68
2023-04-02T04:20:55.671Z,67.09
2023-04-02T04:21:55.697Z,67.40
2023-04-02T04:22:55.921Z,67.83
2023-04-02T04:23:55.769Z,67.89
2023-04-02T04:24:55.811Z,67.50
2023-04-02T04:25:55.855Z,67.50
2023-04-02T04:26:55.874Z,67.49
2023-04-02T04:27:55.908Z,67.36
2023-04-02T04:28:55.958Z,67.26
2023-04-02T04:29:55.953Z,67.31
2023-04-02T04:30:55.981Z,67.04
2023-04-02T04:31:56.183Z,67.11
2023-04-02T04:32:56.062Z,66.87
2023-04-02T04:33:56.039Z,66.94
2023-04-02T04:34:56.055Z,66.72
2023-04-02T04:35:56.154Z,66.47
2023-04-02T04:36:56.109Z,66.54
2023-04-02T04:37:56.130Z,66.50
2023-04-02T04:38:56.153Z,66.36
2023-04-02T04:39:56.181Z,66.23
2023-04-02T04:40:56.203Z,66.23
2023-04-02T04:41:56.250Z,66.13
2023-04-02T04:42:56.280Z,66.18
2023-04-02T04:43:56.320Z,66.34
2023-04-02T04:44:56.372Z,66.59
2023-04-02T04:45:56.426Z,65.98
2023-04-02T04:46:56.418Z,65.94
2023-04-02T04:47:56.508Z,65.98
2023-04-02T04:48:56.454Z,65.87
2023-04-02T04:49:56.503Z,65.78
2023-04-02T04:50:56.522Z,66.00
2023-04-02T04:51:56.560Z,65.95
2023-04-02T04:52:56.754Z,65.86
2023-04-02T04:53:56.626Z,65.89
2023-04-02T04:54:56.658Z,66.09
2023-04-02T04:55:59.678Z,66.46
2023-04-02T04:56:56.718Z,66.41
2023-04-02T04:57:56.717Z,66.48
2023-04-02T04:58:56.724Z,66.51
2023-04-02T04:59:56.732Z,66.87
2023-04-02T05:00:56.760Z,66.59
2023-04-02T05:01:56.796Z,66.44
2023-04-02T05:02:56.773Z,66.39
2023-04-02T05:03:56.793Z,66.19
2023-04-02T05:04:56.878Z,65.96
2023-04-02T05:05:56.794Z,65.82
2023-04-02T05:06:56.823Z,65.75
2023-04-02T05:07:57.929Z,65.82
2023-04-02T05:08:56.861Z,65.72
2023-04-02T05:09:56.886Z,65.76
2023-04-02T05:10:56.905Z,65.78
2023-04-02T05:11:56.948Z,65.66
2023-04-02T05:12:56.953Z,66.18
2023-04-02T05:13:56.968Z,66.06
2023-04-02T05:14:57.017Z,65.76
2023-04-02T05:15:57.776Z,66.01
2023-04-02T05:16:57.076Z,65.76
2023-04-02T05:17:57.088Z,65.25
2023-04-02T05:18:57.094Z,65.36
2023-04-02T05:19:57.130Z,65.37
2023-04-02T05:20:57.124Z,65.60
2023-04-02T05:21:57.159Z,65.73
2023-04-02T05:22:57.177Z,66.13
2023-04-02T05:23:57.211Z,65.65
2023-04-02T05:24:57.253Z,65.30
2023-04-02T05:25:57.263Z,65.41
2023-04-02T05:26:57.299Z,65.45
2023-04-02T05:27:57.326Z,65.87
2023-04-02T05:28:57.387Z,66.10
2023-04-02T05:29:57.383Z,65.95
2023-04-02T05:30:56.487Z,65.83
2023-04-02T05:31:57.449Z,65.64
2023-04-02T05:32:57.623Z,65.50
2023-04-02T05:33:57.508Z,65.43
2023-04-02T05:34:57.528Z,65.53
2023-04-02T05:35:57.643Z,65.56
2023-04-02T05:36:57.582Z,65.40
2023-04-02T05:37:57.609Z,65.65
2023-04-02T05:38:57.647Z,65.54
2023-04-02T05:39:57.655Z,65.60
2023-04-02T05:40:57.668Z,65.52
2023-04-02T05:41:57.693Z,65.37
2023-04-02T05:42:57.712Z,65.37
2023-04-02T05:43:57.730Z,65.37
2023-04-02T05:44:57.738Z,65.33
2023-04-02T05:45:57.752Z,65.27
2023-04-02T05:46:57.810Z,65.57
2023-04-02T05:47:57.825Z,65.38
2023-04-02T05:48:57.828Z,65.29
2023-04-02T05:49:57.810Z,65.26
2023-04-02T05:50:57.826Z,65.30
2023-04-02T05:51:57.926Z,65.23
2023-04-02T05:52:57.864Z,65.26
2023-04-02T05:53:57.914Z,65.31
2023-04-02T05:54:57.946Z,65.43
2023-04-02T05:55:58.008Z,65.46
2023-04-02T05:56:58.038Z,65.50
2023-04-02T05:58:17.704Z,65.50
2023-04-02T05:58:58.317Z,65.63
2023-04-02T05:59:58.077Z,65.69
2023-04-02T06:00:58.087Z,65.80
2023-04-02T06:01:58.162Z,65.54
2023-04-02T06:02:58.182Z,65.83
2023-04-02T06:03:58.171Z,65.61
2023-04-02T06:04:58.149Z,65.57
2023-04-02T06:05:58.124Z,65.52
2023-04-02T06:06:58.127Z,65.34
2023-04-02T06:07:58.152Z,65.18
2023-04-02T06:08:58.149Z,65.07
2023-04-02T06:09:58.155Z,65.22
2023-04-02T06:10:58.176Z,65.62
2023-04-02T06:11:58.168Z,65.26
2023-04-02T06:12:58.175Z,65.24
2023-04-02T06:13:58.202Z,65.45
2023-04-02T06:14:58.203Z,65.72
2023-04-02T06:15:58.217Z,65.82
2023-04-02T06:16:58.279Z,65.80
2023-04-02T06:17:58.279Z,65.85
2023-04-02T06:18:58.258Z,66.05
2023-04-02T06:19:58.263Z,66.01
2023-04-02T06:20:58.319Z,65.88
2023-04-02T06:21:58.288Z,65.88
2023-04-02T06:22:58.291Z,65.80
2023-04-02T06:23:58.308Z,65.60
2023-04-02T06:24:58.312Z,65.53
2023-04-02T06:25:58.347Z,65.55
2023-04-02T06:26:58.409Z,65.47
2023-04-02T06:27:58.491Z,65.34
2023-04-02T06:28:58.537Z,65.13
2023-04-02T06:29:58.582Z,64.69
2023-04-02T06:30:58.694Z,64.45
2023-04-02T06:31:58.674Z,64.30
2023-04-02T06:32:58.757Z,63.93
2023-04-02T06:33:58.732Z,63.86
2023-04-02T06:34:58.771Z,63.82
2023-04-02T06:35:58.845Z,63.66
2023-04-02T06:36:58.823Z,63.37
2023-04-02T06:37:58.825Z,63.29
2023-04-02T06:38:58.841Z,63.18
2023-04-02T06:39:58.857Z,62.95
2023-04-02T06:40:59.176Z,63.05
2023-04-02T06:41:58.844Z,63.06
2023-04-02T06:42:58.864Z,63.05
2023-04-02T06:43:58.889Z,63.08
2023-04-02T06:44:58.848Z,62.95
2023-04-02T06:45:58.941Z,62.98
2023-04-02T06:46:58.847Z,62.89
2023-04-02T06:47:58.968Z,62.75
2023-04-02T06:48:58.838Z,62.73
2023-04-02T06:49:58.833Z,62.58
2023-04-02T06:50:58.835Z,62.39
2023-04-02T06:51:58.844Z,62.36
2023-04-02T06:52:58.924Z,62.36
2023-04-02T06:53:58.936Z,62.14
2023-04-02T06:54:58.980Z,61.87
2023-04-02T06:55:58.980Z,61.65
2023-04-02T06:56:59.081Z,61.60
2023-04-02T06:57:59.053Z,61.55
2023-04-02T06:58:59.104Z,61.36
2023-04-02T06:59:59.149Z,61.20
2023-04-02T07:00:59.200Z,60.91
2023-04-02T07:01:59.262Z,60.82
2023-04-02T07:02:59.319Z,60.52
2023-04-02T07:03:59.361Z,60.38
2023-04-02T07:04:59.426Z,60.67
2023-04-02T07:05:59.445Z,60.69
2023-04-02T07:06:59.476Z,60.73
2023-04-02T07:07:59.524Z,60.62
2023-04-02T07:08:59.583Z,60.38
2023-04-02T07:09:59.586Z,60.07
2023-04-02T07:10:59.609Z,60.19
2023-04-02T07:11:59.626Z,60.31
2023-04-02T07:12:59.644Z,60.16
2023-04-02T07:13:59.692Z,60.01
2023-04-02T07:14:59.709Z,59.99
2023-04-02T07:15:59.787Z,59.69
2023-04-02T07:16:59.760Z,59.12
2023-04-02T07:17:59.811Z,58.95
2023-04-02T07:18:59.802Z,58.88
2023-04-02T07:20:00.229Z,59.09
2023-04-02T07:20:59.857Z,58.59
2023-04-02T07:21:59.875Z,58.50
2023-04-02T07:22:59.912Z,58.25
2023-04-02T07:23:59.924Z,57.87
2023-04-02T07:25:00.023Z,57.82
2023-04-02T07:25:59.999Z,57.80
2023-04-02T07:27:00.031Z,57.55
2023-04-02T07:28:00.060Z,57.58
2023-04-02T07:29:00.031Z,57.43
2023-04-02T07:30:00.030Z,57.28
2023-04-02T07:31:00.005Z,57.25
2023-04-02T07:31:59.976Z,57.09
2023-04-02T07:32:59.984Z,57.22
2023-04-02T07:33:58.921Z,57.71
2023-04-02T07:34:59.942Z,56.99
2023-04-02T07:36:00.005Z,56.35
2023-04-02T07:37:00.009Z,56.26
2023-04-02T07:38:00.021Z,56.27
2023-04-02T07:39:00.040Z,54.97
2023-04-02T07:40:00.017Z,54.40
2023-04-02T07:41:00.105Z,54.34
2023-04-02T07:42:00.080Z,54.20
2023-04-02T07:43:00.074Z,54.03
2023-04-02T07:44:00.079Z,53.96
2023-04-02T07:45:00.144Z,53.79
2023-04-02T07:46:00.170Z,53.49
2023-04-02T07:47:00.303Z,53.46
2023-04-02T07:48:00.231Z,53.60
2023-04-02T07:49:00.188Z,53.76
2023-04-02T07:50:00.205Z,53.94
2023-04-02T07:51:00.208Z,53.97
2023-04-02T07:52:00.203Z,54.17
2023-04-02T07:53:00.175Z,54.21
2023-04-02T07:54:00.162Z,53.74
2023-04-02T07:55:00.157Z,53.40
2023-04-02T07:56:00.144Z,53.40
2023-04-02T07:57:00.210Z,53.07
2023-04-02T07:58:00.180Z,53.02
2023-04-02T07:59:00.156Z,53.16
2023-04-02T08:00:00.178Z,53.36
2023-04-02T08:01:00.162Z,52.69
2023-04-02T08:02:00.215Z,51.94
2023-04-02T08:03:00.201Z,51.87
2023-04-02T08:04:00.169Z,51.91
2023-04-02T08:05:00.073Z,51.68
2023-04-02T08:06:00.040Z,51.98
2023-04-02T08:06:59.986Z,52.57
2023-04-02T08:07:59.952Z,52.27
2023-04-02T08:08:59.870Z,52.13
2023-04-02T08:09:59.823Z,52.06
2023-04-02T08:10:59.802Z,51.78
2023-04-02T08:11:59.742Z,51.37
2023-04-02T08:12:59.715Z,51.25
2023-04-02T08:13:59.681Z,51.82
2023-04-02T08:15:00.028Z,50.93
2023-04-02T08:15:59.639Z,51.13
2023-04-02T08:16:59.729Z,51.28
2023-04-02T08:17:59.685Z,51.32
2023-04-02T08:18:59.668Z,51.26
2023-04-02T08:19:59.663Z,51.34
2023-04-02T08:20:59.694Z,51.32
2023-04-02T08:21:59.665Z,51.35
2023-04-02T08:22:59.680Z,51.58
2023-04-02T08:23:59.702Z,51.00
2023-04-02T08:24:59.668Z,50.74
2023-04-02T08:25:59.640Z,50.68
2023-04-02T08:26:59.618Z,51.12
2023-04-02T08:27:59.572Z,51.30
2023-04-02T08:28:59.566Z,51.22
2023-04-02T08:29:59.498Z,51.10
2023-04-02T08:30:59.527Z,50.78
2023-04-02T08:31:59.448Z,51.17
2023-04-02T08:32:59.468Z,51.08
2023-04-02T08:33:59.393Z,50.96
2023-04-02T08:35:00.452Z,50.87
2023-04-02T08:35:59.404Z,50.82
2023-04-02T08:36:59.312Z,50.41
2023-04-02T08:37:59.270Z,50.26
2023-04-02T08:38:59.256Z,50.16
2023-04-02T08:39:59.268Z,49.65
2023-04-02T08:40:59.282Z,49.90
2023-04-02T08:41:59.241Z,49.58
2023-04-02T08:42:59.192Z,49.93
2023-04-02T08:43:59.177Z,49.48
2023-04-02T08:44:59.228Z,50.29
2023-04-02T08:45:59.213Z,49.67
2023-04-02T08:46:59.189Z,49.05
2023-04-02T08:47:59.247Z,48.84
2023-04-02T08:48:59.169Z,48.56
2023-04-02T08:49:59.116Z,48.38
2023-04-02T08:50:59.072Z,47.52
2023-04-02T08:51:59.053Z,47.39
2023-04-02T08:52:59.019Z,47.24
2023-04-02T08:53:58.954Z,46.98
2023-04-02T08:54:58.914Z,46.72
2023-04-02T08:55:58.889Z,46.77
2023-04-02T08:56:58.858Z,46.56
2023-04-02T08:57:58.766Z,45.98
2023-04-02T08:58:58.737Z,45.40
2023-04-02T08:59:58.720Z,45.53
2023-04-02T09:00:58.740Z,45.35
2023-04-02T09:01:58.818Z,45.28
2023-04-02T09:02:58.723Z,45.20
2023-04-02T09:03:58.690Z,44.57
2023-04-02T09:04:58.677Z,43.94
2023-04-02T09:05:58.652Z,43.58
2023-04-02T09:06:58.695Z,43.40
2023-04-02T09:07:58.641Z,43.32
2023-04-02T09:08:58.634Z,44.25
2023-04-02T09:09:58.656Z,44.25
2023-04-02T09:10:58.625Z,44.14
2023-04-02T09:11:58.616Z,43.89
2023-04-02T09:12:58.616Z,43.51
2023-04-02T09:13:58.578Z,43.43
2023-04-02T09:14:58.706Z,43.20
2023-04-02T09:15:58.554Z,43.60
2023-04-02T09:16:58.548Z,43.12
2023-04-02T09:17:59.612Z,43.07
2023-04-02T09:18:58.505Z,43.28
2023-04-02T09:19:58.489Z,43.03
2023-04-02T09:20:58.474Z,43.56
2023-04-02T09:21:58.445Z,43.63
2023-04-02T09:22:58.430Z,43.81
2023-04-02T09:23:58.410Z,43.59
2023-04-02T09:24:58.393Z,43.46
2023-04-02T09:26:04.121Z,42.88
2023-04-02T09:26:58.324Z,42.69
2023-04-02T09:27:58.241Z,42.98
2023-04-02T09:28:58.166Z,42.93
2023-04-02T09:29:57.091Z,42.64
2023-04-02T09:30:58.024Z,42.80
2023-04-02T09:31:58.053Z,42.48
2023-04-02T09:32:58.001Z,42.43
2023-04-02T09:33:57.852Z,42.33
2023-04-02T09:34:57.764Z,41.81
2023-04-02T09:35:57.882Z,41.77
2023-04-02T09:36:57.637Z,41.67
2023-04-02T09:37:57.554Z,41.44
2023-04-02T09:38:57.558Z,41.00
2023-04-02T09:39:57.507Z,40.64
2023-04-02T09:40:57.473Z,40.63
2023-04-02T09:42:05.148Z,40.29
2023-04-02T09:42:57.374Z,39.89
2023-04-02T09:43:57.513Z,39.84
2023-04-02T09:44:57.210Z,39.44
2023-04-02T09:45:57.122Z,38.87
2023-04-02T09:46:57.083Z,38.82
2023-04-02T09:47:57.033Z,38.32
2023-04-02T09:48:56.936Z,38.59
2023-04-02T09:49:56.846Z,38.84
2023-04-02T09:50:56.752Z,39.21
2023-04-02T09:51:56.678Z,39.29
2023-04-02T09:52:56.612Z,39.71
2023-04-02T09:53:56.552Z,39.41
2023-04-02T09:54:56.513Z,40.33
2023-04-02T09:55:56.411Z,40.83
2023-04-02T09:56:56.360Z,40.82
2023-04-02T09:57:56.282Z,41.00
2023-04-02T09:58:56.215Z,41.13
2023-04-02T09:59:56.143Z,40.62
2023-04-02T10:00:56.089Z,40.65
2023-04-02T10:01:56.065Z,40.57
2023-04-02T10:02:55.910Z,40.72
2023-04-02T10:03:55.841Z,40.91
2023-04-02T10:04:55.764Z,41.43
2023-04-02T10:05:55.660Z,41.19
2023-04-02T10:06:55.597Z,41.17
2023-04-02T10:07:55.551Z,40.95
2023-04-02T10:08:55.538Z,42.02
2023-04-02T10:09:55.488Z,41.46
2023-04-02T10:10:55.476Z,40.98
2023-04-02T10:11:55.448Z,40.74
2023-04-02T10:12:55.400Z,40.43
2023-04-02T10:13:55.372Z,41.61
2023-04-02T10:14:55.331Z,40.18
2023-04-02T10:15:55.286Z,40.88
2023-04-02T10:16:55.290Z,41.89
2023-04-02T10:17:55.234Z,40.81
2023-04-02T10:18:55.224Z,40.65
2023-04-02T10:19:55.191Z,40.86
2023-04-02T10:20:55.160Z,41.64
2023-04-02T10:21:55.088Z,41.28
2023-04-02T10:22:55.076Z,42.28
2023-04-02T10:23:55.106Z,41.76
2023-04-02T10:24:55.100Z,41.53
2023-04-02T10:25:55.068Z,41.84
2023-04-02T10:26:55.076Z,41.65
2023-04-02T10:27:55.063Z,41.01
2023-04-02T10:28:55.056Z,41.50
2023-04-02T10:29:55.072Z,42.80
2023-04-02T10:30:55.116Z,43.76
2023-04-02T10:31:55.118Z,43.47
2023-04-02T10:32:55.130Z,44.76
2023-04-02T10:33:55.147Z,46.04
2023-04-02T10:34:55.175Z,46.13
2023-04-02T10:35:55.246Z,46.66
2023-04-02T10:36:55.202Z,47.11
2023-04-02T10:37:55.191Z,45.53
2023-04-02T10:38:55.227Z,45.17
2023-04-02T10:39:55.253Z,45.80
2023-04-02T10:40:56.952Z,45.97
2023-04-02T10:41:55.203Z,47.28
2023-04-02T10:42:55.190Z,48.15
2023-04-02T10:43:55.906Z,47.53
2023-04-02T10:44:55.203Z,49.03
2023-04-02T10:45:55.226Z,49.62
2023-04-02T10:46:55.189Z,49.28
2023-04-02T10:47:55.230Z,49.44
2023-04-02T10:48:55.213Z,49.73
2023-04-02T10:49:55.174Z,50.01
2023-04-02T10:50:55.205Z,51.36
2023-04-02T10:51:55.184Z,51.14
2023-04-02T10:52:56.521Z,51.09
2023-04-02T10:53:55.294Z,51.38
2023-04-02T10:54:55.335Z,52.02
2023-04-02T10:55:55.396Z,52.85
2023-04-02T10:56:55.458Z,53.19
2023-04-02T10:57:55.441Z,52.85
2023-04-02T10:58:57.323Z,52.86
2023-04-02T10:59:55.517Z,53.07
2023-04-02T11:00:55.542Z,52.12
2023-04-02T11:01:55.639Z,51.78
2023-04-02T11:02:55.646Z,52.04
2023-04-02T11:03:57.874Z,52.16
2023-04-02T11:04:57.198Z,52.34
2023-04-02T11:05:56.969Z,51.47
2023-04-02T11:07:07.225Z,52.31
2023-04-02T11:07:55.709Z,51.85
2023-04-02T11:08:55.747Z,51.74
2023-04-02T11:09:55.698Z,50.73
2023-04-02T11:10:55.705Z,49.63
2023-04-02T11:11:55.687Z,49.37
2023-04-02T11:12:55.687Z,49.67
2023-04-02T11:13:55.672Z,50.43
2023-04-02T11:14:55.664Z,50.46
2023-04-02T11:15:55.722Z,49.40
2023-04-02T11:16:55.672Z,49.69
2023-04-02T11:17:55.712Z,49.27
2023-04-02T11:18:55.681Z,49.84
2023-04-02T11:19:55.655Z,50.58
2023-04-02T11:20:55.667Z,50.21
2023-04-02T11:21:59.375Z,50.05
2023-04-02T11:22:55.838Z,50.68
2023-04-02T11:23:55.640Z,49.79
2023-04-02T11:24:55.662Z,49.46
2023-04-02T11:25:55.632Z,49.42
2023-04-02T11:26:55.619Z,49.38
2023-04-02T11:27:55.601Z,50.42
2023-04-02T11:28:55.593Z,50.64
2023-04-02T11:29:55.590Z,49.26
2023-04-02T11:30:55.594Z,49.37
2023-04-02T11:31:55.615Z,48.42
2023-04-02T11:32:55.592Z,49.20
2023-04-02T11:33:55.561Z,49.40
2023-04-02T11:35:54.643Z,49.64
2023-04-02T11:36:55.541Z,48.50
2023-04-02T11:37:55.547Z,48.89
2023-04-02T11:39:04.428Z,48.95
2023-04-02T11:39:55.507Z,49.25
2023-04-02T11:40:55.530Z,49.40
2023-04-02T11:41:55.479Z,50.00
2023-04-02T11:42:55.465Z,50.15
2023-04-02T11:43:55.485Z,50.01
2023-04-02T11:44:55.460Z,49.47
2023-04-02T11:45:55.815Z,49.31
2023-04-02T11:46:55.548Z,48.32
2023-04-02T11:47:55.532Z,48.96
2023-04-02T11:48:55.472Z,48.70
2023-04-02T11:49:55.491Z,48.76
2023-04-02T11:50:55.464Z,48.86
2023-04-02T11:52:09.104Z,47.72
2023-04-02T11:52:55.452Z,48.49
2023-04-02T11:53:55.426Z,48.80
2023-04-02T11:54:55.432Z,48.64
2023-04-02T11:55:55.426Z,48.59
2023-04-02T11:56:55.467Z,48.91
2023-04-02T11:57:55.392Z,49.09
2023-04-02T11:58:55.382Z,47.96
2023-04-02T11:59:55.371Z,47.56
2023-04-02T12:00:55.359Z,47.21
2023-04-02T12:01:55.404Z,47.75
2023-04-02T12:02:55.793Z,48.11
2023-04-02T12:03:55.345Z,47.21
2023-04-02T12:04:55.366Z,47.89
2023-04-02T12:05:55.317Z,46.65
2023-04-02T12:06:55.301Z,47.02
2023-04-02T12:07:55.278Z,48.07
2023-04-02T12:08:58.091Z,47.09
2023-04-02T12:09:55.237Z,47.16
2023-04-02T12:10:55.213Z,47.75
2023-04-02T12:11:55.216Z,47.35
2023-04-02T12:12:55.201Z,46.80
2023-04-02T12:13:55.152Z,45.66
2023-04-02T12:14:55.130Z,46.16
2023-04-02T12:15:55.100Z,46.21
2023-04-02T12:16:55.120Z,47.73
2023-04-02T12:17:55.108Z,46.72
2023-04-02T12:18:55.048Z,45.21
2023-04-02T12:19:55.012Z,45.88
2023-04-02T12:20:55.012Z,45.99
2023-04-02T12:21:54.992Z,46.30
2023-04-02T12:22:54.970Z,46.96
2023-04-02T12:23:54.932Z,44.71
2023-04-02T12:24:54.913Z,45.23
2023-04-02T12:25:54.893Z,44.60
2023-04-02T12:26:54.856Z,44.03
2023-04-02T12:27:54.844Z,45.69
2023-04-02T12:28:54.853Z,45.93
2023-04-02T12:29:54.832Z,45.13
2023-04-02T12:30:54.870Z,44.74
2023-04-02T12:31:54.907Z,43.62
2023-04-02T12:32:54.851Z,43.78
2023-04-02T12:33:54.875Z,43.46
2023-04-02T12:34:54.835Z,43.56
2023-04-02T12:35:54.881Z,43.84
2023-04-02T12:36:54.872Z,44.45
2023-04-02T12:37:54.908Z,45.33
2023-04-02T12:38:54.919Z,46.26
2023-04-02T12:39:54.970Z,45.06
2023-04-02T12:40:54.940Z,43.65
2023-04-02T12:41:54.953Z,44.02
2023-04-02T12:42:54.965Z,44.96
2023-04-02T12:43:54.983Z,43.34
2023-04-02T12:44:55.034Z,43.86
2023-04-02T12:45:55.085Z,44.27
2023-04-02T12:46:54.996Z,44.44
2023-04-02T12:47:55.033Z,44.15
2023-04-02T12:48:55.044Z,45.11
2023-04-02T12:49:55.051Z,45.19
2023-04-02T12:50:55.076Z,44.68
2023-04-02T12:51:55.072Z,44.86
2023-04-02T12:52:55.166Z,44.10
2023-04-02T12:53:55.089Z,44.78